createdAt,value
2023-06-21T00:01:12.492Z,20.13
2023-06-21T00:04:25.742Z,23.60
2023-06-21T00:07:54.524Z,17.03
2023-06-21T00:10:26.047Z,24.97
2023-06-21T00:12:57.328Z,27.10
2023-06-21T00:15:30.821Z,20.17
2023-06-21T00:18:01.512Z,19.63
2023-06-21T00:20:32.358Z,23.77
2023-06-21T00:23:02.941Z,21.23
2023-06-21T00:25:34.212Z,18.20
2023-06-21T00:28:05.548Z,23.73
2023-06-21T00:30:38.812Z,25.60
2023-06-21T00:33:09.370Z,23.80
2023-06-21T00:35:39.922Z,31.37
2023-06-21T00:38:13.822Z,26.67
2023-06-21T00:40:44.648Z,27.13
2023-06-21T00:43:17.111Z,21.70
2023-06-21T00:45:51.238Z,25.93
2023-06-21T00:48:21.875Z,19.60
2023-06-21T00:50:52.526Z,17.77
2023-06-21T00:53:23.148Z,19.23
2023-06-21T00:55:57.143Z,23.57
2023-06-21T00:58:28.098Z,19.47
2023-06-21T01:01:01.800Z,18.77
2023-06-21T01:03:32.784Z,26.70
2023-06-21T01:06:13.426Z,20.40
2023-06-21T01:08:53.899Z,21.97
2023-06-21T01:11:30.084Z,18.97
2023-06-21T01:14:12.057Z,20.13
2023-06-21T01:16:50.099Z,26.27
2023-06-21T01:19:32.830Z,31.17
2023-06-21T01:22:12.359Z,23.03
2023-06-21T01:24:58.366Z,21.93
2023-06-21T01:27:42.416Z,27.30
2023-06-21T01:30:16.478Z,32.13
2023-06-21T01:32:47.573Z,21.20
2023-06-21T01:35:18.387Z,20.10
2023-06-21T01:37:48.976Z,20.90
2023-06-21T01:40:21.137Z,18.60
2023-06-21T01:42:51.769Z,20.27
2023-06-21T01:45:26.207Z,26.07
2023-06-21T01:47:58.162Z,21.33
2023-06-21T01:50:30.389Z,28.60
2023-06-21T01:53:01.435Z,28.13
2023-06-21T01:55:33.762Z,26.20
2023-06-21T01:58:05.389Z,26.50
2023-06-21T02:00:38.593Z,24.43
2023-06-21T02:03:13.747Z,25.17
2023-06-21T02:05:46.626Z,22.57
2023-06-21T02:08:19.918Z,28.00
2023-06-21T02:10:51.296Z,26.07
2023-06-21T02:13:22.842Z,23.60
2023-06-21T02:15:56.224Z,20.33
2023-06-21T02:18:27.141Z,25.03
2023-06-21T02:21:07.330Z,30.10
2023-06-21T02:23:39.094Z,20.33
2023-06-21T02:26:10.602Z,22.57
2023-06-21T02:28:45.890Z,20.93
2023-06-21T02:31:19.225Z,22.73
2023-06-21T02:33:50.617Z,29.37
2023-06-21T02:36:21.471Z,24.97
2023-06-21T02:38:52.066Z,23.20
2023-06-21T02:41:22.946Z,24.80
2023-06-21T02:43:53.587Z,26.53
2023-06-21T02:46:26.938Z,30.73
2023-06-21T02:48:57.606Z,21.00
2023-06-21T02:51:28.122Z,23.60
2023-06-21T02:53:58.905Z,23.40
2023-06-21T02:56:31.664Z,34.57
2023-06-21T02:59:02.208Z,26.73
2023-06-21T03:01:35.321Z,23.73
2023-06-21T03:04:05.980Z,29.23
2023-06-21T03:06:36.712Z,27.43
2023-06-21T03:09:07.560Z,26.23
2023-06-21T03:11:38.395Z,24.97
2023-06-21T03:14:09.100Z,25.40
2023-06-21T03:16:44.738Z,31.70
2023-06-21T03:19:15.703Z,24.37
2023-06-21T03:21:47.475Z,26.37
2023-06-21T03:24:19.009Z,24.10
2023-06-21T03:26:51.042Z,28.57
2023-06-21T03:29:22.233Z,23.17
2023-06-21T03:31:56.111Z,22.63
2023-06-21T03:34:27.141Z,23.40
2023-06-21T03:36:57.725Z,30.53
2023-06-21T03:39:30.308Z,30.00
2023-06-21T03:42:00.892Z,29.93
2023-06-21T03:44:31.817Z,24.60
2023-06-21T03:47:05.791Z,24.90
2023-06-21T03:49:37.433Z,22.57
2023-06-21T03:52:08.935Z,25.07
2023-06-21T03:54:39.531Z,25.23
2023-06-21T03:57:10.321Z,24.67
2023-06-21T03:59:40.923Z,22.80
2023-06-21T04:02:14.103Z,31.10
2023-06-21T04:04:44.754Z,19.43
2023-06-21T04:07:21.026Z,20.93
2023-06-21T04:09:52.932Z,25.47
2023-06-21T04:12:23.530Z,27.10
2023-06-21T04:14:54.030Z,21.80
2023-06-21T04:17:27.398Z,25.33
2023-06-21T04:19:59.344Z,21.53
2023-06-21T04:22:31.000Z,25.10
2023-06-21T04:25:02.323Z,17.53
2023-06-21T04:27:34.275Z,22.10
2023-06-21T04:30:04.873Z,21.90
2023-06-21T04:32:46.169Z,23.00
2023-06-21T04:35:18.162Z,15.30
2023-06-21T04:37:51.256Z,17.37
2023-06-21T04:40:24.844Z,15.57
2023-06-21T04:42:59.837Z,16.50
2023-06-21T04:45:30.699Z,18.20
2023-06-21T04:48:06.901Z,24.63
2023-06-21T04:50:38.065Z,21.67
2023-06-21T04:53:08.735Z,15.10
2023-06-21T04:55:43.864Z,22.23
2023-06-21T04:58:14.751Z,13.57
2023-06-21T05:00:45.296Z,13.80
2023-06-21T05:03:18.590Z,20.43
2023-06-21T05:05:49.196Z,14.63
2023-06-21T05:08:19.755Z,18.60
2023-06-21T05:10:50.501Z,14.77
2023-06-21T05:13:21.358Z,15.00
2023-06-21T05:15:51.964Z,19.80
2023-06-21T05:18:25.098Z,18.23
2023-06-21T05:20:56.665Z,18.60
2023-06-21T05:23:27.420Z,20.90
2023-06-21T05:25:57.930Z,23.83
2023-06-21T05:28:28.434Z,21.13
2023-06-21T05:30:59.087Z,19.63
2023-06-21T05:33:32.185Z,17.40
2023-06-21T05:36:03.450Z,18.63
2023-06-21T05:38:34.007Z,26.23
2023-06-21T05:41:04.801Z,17.57
2023-06-21T05:43:35.380Z,22.57
2023-06-21T05:46:06.009Z,22.33
2023-06-21T05:48:39.125Z,42.57
2023-06-21T05:51:09.691Z,24.30
2023-06-21T05:53:40.253Z,25.83
2023-06-21T05:56:10.820Z,19.67
2023-06-21T05:58:41.345Z,17.10
2023-06-21T06:01:23.660Z,25.70
2023-06-21T06:03:58.184Z,18.10
2023-06-21T06:06:40.389Z,25.70
2023-06-21T06:09:11.572Z,18.17
2023-06-21T06:11:42.374Z,18.73
2023-06-21T06:14:14.386Z,27.63
2023-06-21T06:16:44.898Z,20.90
2023-06-21T06:19:18.047Z,22.13
2023-06-21T06:21:49.177Z,19.20
2023-06-21T06:24:19.813Z,17.63
2023-06-21T06:26:50.387Z,16.50
2023-06-21T06:29:20.887Z,18.10
2023-06-21T06:31:53.823Z,20.33
2023-06-21T06:34:28.164Z,13.80
2023-06-21T06:37:12.243Z,19.30
2023-06-21T06:39:44.824Z,17.57
2023-06-21T06:42:15.495Z,17.67
2023-06-21T06:44:46.054Z,19.63
2023-06-21T06:47:16.991Z,16.40
2023-06-21T06:49:50.115Z,16.23
2023-06-21T06:52:20.698Z,18.00
2023-06-21T06:54:51.239Z,16.10
2023-06-21T06:57:30.671Z,19.53
2023-06-21T07:00:08.076Z,16.70
2023-06-21T07:02:38.660Z,16.17
2023-06-21T07:05:12.622Z,13.20
2023-06-21T07:07:43.210Z,16.70
2023-06-21T07:10:14.425Z,18.03
2023-06-21T07:12:44.981Z,13.63
2023-06-21T07:15:15.561Z,18.80
2023-06-21T07:17:46.131Z,14.70
2023-06-21T07:20:19.506Z,14.80
2023-06-21T07:22:50.085Z,15.30
2023-06-21T07:25:20.834Z,15.57
2023-06-21T07:27:51.463Z,17.33
2023-06-21T07:30:24.123Z,14.40
2023-06-21T07:32:55.118Z,15.13
2023-06-21T07:35:28.677Z,16.77
2023-06-21T07:37:59.308Z,13.90
2023-06-21T07:40:30.170Z,14.40
2023-06-21T07:43:00.850Z,18.60
2023-06-21T07:45:31.678Z,15.30
2023-06-21T07:48:02.337Z,27.43
2023-06-21T07:50:35.554Z,13.60
2023-06-21T07:53:06.109Z,15.33
2023-06-21T07:55:36.698Z,14.13
2023-06-21T07:58:07.655Z,14.73
2023-06-21T08:00:38.185Z,12.03
2023-06-21T08:03:08.835Z,13.37
2023-06-21T08:05:41.989Z,16.27
2023-06-21T08:08:13.425Z,11.93
2023-06-21T08:10:44.087Z,10.87
2023-06-21T08:13:18.485Z,14.37
2023-06-21T08:15:49.434Z,16.93
2023-06-21T08:18:20.116Z,15.63
2023-06-21T08:20:53.246Z,14.03
2023-06-21T08:23:23.786Z,11.97
2023-06-21T08:25:54.350Z,11.17
2023-06-21T08:28:25.140Z,13.23
2023-06-21T08:30:55.705Z,13.33
2023-06-21T08:33:26.231Z,13.93
2023-06-21T08:35:59.388Z,11.77
2023-06-21T08:38:30.071Z,16.40
2023-06-21T08:41:06.248Z,15.87
2023-06-21T08:43:37.067Z,12.93
2023-06-21T08:46:10.697Z,12.47
2023-06-21T08:48:42.411Z,14.70
2023-06-21T08:51:15.783Z,15.17
2023-06-21T08:53:50.186Z,13.00
2023-06-21T08:56:25.327Z,12.40
2023-06-21T08:59:03.425Z,15.53
2023-06-21T09:01:41.330Z,18.73
2023-06-21T09:04:16.382Z,32.37
2023-06-21T09:06:49.929Z,19.83
2023-06-21T09:09:21.234Z,16.23
2023-06-21T09:11:51.804Z,21.17
2023-06-21T09:14:24.124Z,22.20
2023-06-21T09:16:57.787Z,26.43
2023-06-21T09:19:29.559Z,23.83
2023-06-21T09:22:03.201Z,37.80
2023-06-21T09:24:33.806Z,31.10
2023-06-21T09:27:04.562Z,33.50
2023-06-21T09:29:36.169Z,32.00
2023-06-21T09:32:07.917Z,27.20
2023-06-21T09:34:38.921Z,36.47
2023-06-21T09:37:12.274Z,38.73
2023-06-21T09:39:42.962Z,36.27
2023-06-21T09:42:14.548Z,33.20
2023-06-21T09:44:46.801Z,41.47
2023-06-21T09:47:18.304Z,36.23
2023-06-21T09:49:50.516Z,25.73
2023-06-21T09:52:27.664Z,29.00
2023-06-21T09:55:01.397Z,30.50
2023-06-21T09:57:32.561Z,29.77
2023-06-21T10:00:06.893Z,31.20
2023-06-21T10:02:43.760Z,33.90
2023-06-21T10:05:21.109Z,26.90
2023-06-21T10:07:54.480Z,27.67
2023-06-21T10:10:26.938Z,35.53
2023-06-21T10:12:58.923Z,28.33
2023-06-21T10:15:29.615Z,30.27
2023-06-21T10:18:06.044Z,39.37
2023-06-21T10:20:38.988Z,35.30
2023-06-21T10:23:17.562Z,30.93
2023-06-21T10:25:51.190Z,31.73
2023-06-21T10:28:24.091Z,41.50
2023-06-21T10:30:58.295Z,31.13
2023-06-21T10:33:31.996Z,35.70
2023-06-21T10:36:05.673Z,29.87
2023-06-21T10:38:46.277Z,24.53
2023-06-21T10:41:18.324Z,29.33
2023-06-21T10:43:49.007Z,27.00
2023-06-21T10:46:19.948Z,28.00
2023-06-21T10:48:52.002Z,30.83
2023-06-21T10:51:23.279Z,27.17
2023-06-21T10:53:57.138Z,26.63
2023-06-21T10:56:29.348Z,26.50
2023-06-21T10:58:59.930Z,25.17
2023-06-21T11:01:31.098Z,27.83
2023-06-21T11:04:01.868Z,25.00
2023-06-21T11:06:40.241Z,24.23
2023-06-21T11:09:17.699Z,23.33
2023-06-21T11:11:54.261Z,25.27
2023-06-21T11:14:26.253Z,24.57
2023-06-21T11:17:13.649Z,22.00
2023-06-21T11:19:46.680Z,22.37
2023-06-21T11:22:20.906Z,24.67
2023-06-21T11:25:02.066Z,21.03
2023-06-21T11:27:33.153Z,15.20
2023-06-21T11:30:11.464Z,20.40
2023-06-21T11:32:57.388Z,17.07
2023-06-21T11:35:41.053Z,20.43
2023-06-21T11:38:11.686Z,15.77
2023-06-21T11:40:45.143Z,21.57
2023-06-21T11:43:22.188Z,18.60
2023-06-21T11:46:01.876Z,14.83
2023-06-21T11:48:34.064Z,14.90
2023-06-21T11:51:13.445Z,15.27
2023-06-21T11:53:45.793Z,13.77
2023-06-21T11:56:20.741Z,21.10
2023-06-21T11:58:51.894Z,14.23
2023-06-21T12:01:22.564Z,17.93
2023-06-21T12:03:59.518Z,23.33
2023-06-21T12:06:30.611Z,23.10
2023-06-21T12:09:02.290Z,25.53
2023-06-21T12:11:35.498Z,22.20
2023-06-21T12:14:07.548Z,12.77
2023-06-21T12:16:38.183Z,15.27
2023-06-21T12:19:12.198Z,14.27
2023-06-21T12:21:43.747Z,13.47
2023-06-21T12:24:14.368Z,16.23
2023-06-21T12:26:56.318Z,18.23
2023-06-21T12:29:28.545Z,12.93
2023-06-21T12:32:00.650Z,18.13
2023-06-21T12:34:31.426Z,14.43
2023-06-21T12:37:02.035Z,13.87
2023-06-21T12:39:32.792Z,12.93
2023-06-21T12:42:10.377Z,13.33
2023-06-21T12:44:41.824Z,12.90
2023-06-21T12:47:13.385Z,13.27
2023-06-21T12:49:49.184Z,15.07
2023-06-21T12:52:28.024Z,16.10
2023-06-21T12:54:59.862Z,19.40
2023-06-21T12:57:37.563Z,15.30
2023-06-21T13:00:11.117Z,15.43
2023-06-21T13:02:42.145Z,14.80
2023-06-21T13:05:13.385Z,10.70
2023-06-21T13:07:44.115Z,13.70
2023-06-21T13:10:15.123Z,16.37
2023-06-21T13:12:48.259Z,14.07
2023-06-21T13:15:18.976Z,14.30
2023-06-21T13:17:49.623Z,13.87
2023-06-21T13:20:20.770Z,12.57
2023-06-21T13:22:51.408Z,16.80
2023-06-21T13:25:22.289Z,13.30
2023-06-21T13:27:55.780Z,15.83
2023-06-21T13:30:26.781Z,17.90
2023-06-21T13:32:57.612Z,14.07
2023-06-21T13:35:28.649Z,14.77
2023-06-21T13:37:59.207Z,14.33
2023-06-21T13:40:30.154Z,11.60
2023-06-21T13:43:03.743Z,17.90
2023-06-21T13:45:34.360Z,16.43
2023-06-21T13:48:05.451Z,15.73
2023-06-21T13:50:36.251Z,18.37
2023-06-21T13:53:07.006Z,21.63
2023-06-21T13:55:37.588Z,16.80
2023-06-21T13:58:10.769Z,11.30
2023-06-21T14:00:41.367Z,12.40
2023-06-21T14:03:12.268Z,10.77
2023-06-21T14:05:43.077Z,14.57
2023-06-21T14:08:13.731Z,14.70
2023-06-21T14:10:45.917Z,18.37
2023-06-21T14:13:22.570Z,13.93
2023-06-21T14:15:53.693Z,16.90
2023-06-21T14:18:41.681Z,18.10
2023-06-21T14:21:15.767Z,13.90
2023-06-21T14:23:46.864Z,13.07
2023-06-21T14:26:17.476Z,11.37
2023-06-21T14:28:50.921Z,12.57
2023-06-21T14:31:21.611Z,14.13
2023-06-21T14:33:55.437Z,16.47
2023-06-21T14:36:26.181Z,10.07
2023-06-21T14:38:56.824Z,13.90
2023-06-21T14:41:27.703Z,12.63
2023-06-21T14:44:00.890Z,13.40
2023-06-21T14:46:31.633Z,12.57
2023-06-21T14:49:02.412Z,11.40
2023-06-21T14:51:34.682Z,11.03
2023-06-21T14:54:08.113Z,13.47
2023-06-21T14:56:38.756Z,11.77
2023-06-21T14:59:11.931Z,12.57
2023-06-21T15:01:42.530Z,13.07
2023-06-21T15:04:13.110Z,11.40
2023-06-21T15:06:44.266Z,13.43
2023-06-21T15:09:15.362Z,13.07
2023-06-21T15:11:45.985Z,12.60
2023-06-21T15:14:19.255Z,12.20
2023-06-21T15:16:50.838Z,12.30
2023-06-21T15:19:22.110Z,12.68
2023-06-21T15:21:52.707Z,14.67
2023-06-21T15:24:23.296Z,12.33
2023-06-21T15:26:53.828Z,14.40
2023-06-21T15:29:27.114Z,14.60
2023-06-21T15:31:57.718Z,12.43
2023-06-21T15:34:28.379Z,16.23
2023-06-21T15:36:58.898Z,13.40
2023-06-21T15:39:31.058Z,11.10
2023-06-21T15:42:01.602Z,11.50
2023-06-21T15:44:34.770Z,11.40
2023-06-21T15:47:05.401Z,12.00
2023-06-21T15:49:36.220Z,12.10
2023-06-21T15:52:07.001Z,12.93
2023-06-21T15:54:37.659Z,12.43
2023-06-21T15:57:09.227Z,14.03
2023-06-21T15:59:42.663Z,13.53
2023-06-21T16:02:14.357Z,11.17
2023-06-21T16:04:45.022Z,10.57
2023-06-21T16:07:15.618Z,14.30
2023-06-21T16:09:46.173Z,13.20
2023-06-21T16:12:16.745Z,12.37
2023-06-21T16:14:49.912Z,12.70
2023-06-21T16:17:20.976Z,10.83
2023-06-21T16:19:51.647Z,12.07
2023-06-21T16:22:22.323Z,10.17
2023-06-21T16:24:52.914Z,14.43
2023-06-21T16:27:23.968Z,15.20
2023-06-21T16:29:58.157Z,11.93
2023-06-21T16:32:28.773Z,12.17
2023-06-21T16:34:59.425Z,12.37
2023-06-21T16:37:30.003Z,11.33
2023-06-21T16:40:00.672Z,10.40
2023-06-21T16:42:31.405Z,13.60
2023-06-21T16:45:04.789Z,10.73
2023-06-21T16:47:35.409Z,11.07
2023-06-21T16:50:06.257Z,12.73
2023-06-21T16:52:36.877Z,14.17
2023-06-21T16:55:08.234Z,12.80
2023-06-21T16:57:38.839Z,10.93
2023-06-21T17:00:14.239Z,13.53
2023-06-21T17:02:44.930Z,18.60
2023-06-21T17:05:15.765Z,13.33
2023-06-21T17:07:46.442Z,14.03
2023-06-21T17:10:17.103Z,13.20
2023-06-21T17:12:47.724Z,13.77
2023-06-21T17:15:20.945Z,14.23
2023-06-21T17:17:51.646Z,13.47
2023-06-21T17:20:22.420Z,12.30
2023-06-21T17:22:52.966Z,16.63
2023-06-21T17:25:23.603Z,13.73
2023-06-21T17:27:54.185Z,12.73
2023-06-21T17:30:27.360Z,13.43
2023-06-21T17:32:58.106Z,14.70
2023-06-21T17:35:28.917Z,13.40
2023-06-21T17:37:59.651Z,17.13
2023-06-21T17:40:30.208Z,14.73
2023-06-21T17:43:00.875Z,15.50
2023-06-21T17:45:34.484Z,12.20
2023-06-21T17:48:05.179Z,20.73
2023-06-21T17:50:35.842Z,12.10
2023-06-21T17:53:06.424Z,13.93
2023-06-21T17:55:37.133Z,15.10
2023-06-21T17:58:07.751Z,13.60
2023-06-21T18:00:41.013Z,12.13
2023-06-21T18:03:11.797Z,14.07
2023-06-21T18:05:42.515Z,13.33
2023-06-21T18:08:13.097Z,13.77
2023-06-21T18:10:43.670Z,14.33
2023-06-21T18:13:14.274Z,18.40
2023-06-21T18:15:47.485Z,19.93
2023-06-21T18:18:18.198Z,15.00
2023-06-21T18:20:49.728Z,13.50
2023-06-21T18:23:20.589Z,13.57
2023-06-21T18:25:51.396Z,13.27
2023-06-21T18:28:22.146Z,12.67
2023-06-21T18:30:56.278Z,15.47
2023-06-21T18:33:26.924Z,16.20
2023-06-21T18:35:57.701Z,13.27
2023-06-21T18:38:29.158Z,16.73
2023-06-21T18:40:59.881Z,15.47
2023-06-21T18:43:30.482Z,17.07
2023-06-21T18:46:03.662Z,13.67
2023-06-21T18:48:34.284Z,15.00
2023-06-21T18:51:04.792Z,18.90
2023-06-21T18:53:35.403Z,16.10
2023-06-21T18:56:05.916Z,18.00
2023-06-21T18:58:38.742Z,13.27
2023-06-21T19:01:11.910Z,15.10
2023-06-21T19:03:42.623Z,16.63
2023-06-21T19:06:13.249Z,14.23
2023-06-21T19:08:43.880Z,22.57
2023-06-21T19:11:14.461Z,17.20
2023-06-21T19:13:45.720Z,16.77
2023-06-21T19:16:22.614Z,17.40
2023-06-21T19:18:54.614Z,14.73
2023-06-21T19:21:25.331Z,14.03
2023-06-21T19:23:55.864Z,21.80
2023-06-21T19:26:26.454Z,20.07
2023-06-21T19:28:57.636Z,15.67
2023-06-21T19:31:30.874Z,23.90
2023-06-21T19:34:01.490Z,17.00
2023-06-21T19:36:32.038Z,15.77
2023-06-21T19:39:02.603Z,23.00
2023-06-21T19:41:33.161Z,16.33
2023-06-21T19:44:04.046Z,14.83
2023-06-21T19:46:40.608Z,19.80
2023-06-21T19:49:11.685Z,17.23
2023-06-21T19:51:42.207Z,19.70
2023-06-21T19:54:21.728Z,13.77
2023-06-21T19:56:53.405Z,18.60
2023-06-21T19:59:24.400Z,17.17
2023-06-21T20:01:57.578Z,16.57
2023-06-21T20:04:28.193Z,13.90
2023-06-21T20:06:58.761Z,14.67
2023-06-21T20:09:29.310Z,13.53
2023-06-21T20:12:00.203Z,15.07
2023-06-21T20:14:30.719Z,18.87
2023-06-21T20:17:03.796Z,16.93
2023-06-21T20:19:36.524Z,16.90
2023-06-21T20:22:07.932Z,13.97
2023-06-21T20:24:38.571Z,13.17
2023-06-21T20:27:10.185Z,17.23
2023-06-21T20:29:40.758Z,15.33
2023-06-21T20:32:14.563Z,16.73
2023-06-21T20:34:45.792Z,14.80
2023-06-21T20:37:16.343Z,15.83
2023-06-21T20:39:48.262Z,16.40
2023-06-21T20:42:18.848Z,14.03
2023-06-21T20:44:49.404Z,14.87
2023-06-21T20:47:22.488Z,14.60
2023-06-21T20:49:53.025Z,16.00
2023-06-21T20:52:23.813Z,19.87
2023-06-21T20:54:54.609Z,15.33
2023-06-21T20:57:25.178Z,16.63
2023-06-21T20:59:55.912Z,14.40
2023-06-21T21:02:29.725Z,13.50
2023-06-21T21:05:00.275Z,15.87
2023-06-21T21:07:30.838Z,14.83
2023-06-21T21:10:01.509Z,15.13
2023-06-21T21:12:32.010Z,13.80
2023-06-21T21:15:02.572Z,17.10
2023-06-21T21:17:35.860Z,15.20
2023-06-21T21:20:07.592Z,18.93
2023-06-21T21:22:38.367Z,12.53
2023-06-21T21:25:10.078Z,14.83
2023-06-21T21:27:40.747Z,16.93
2023-06-21T21:30:13.058Z,15.87
2023-06-21T21:32:46.292Z,16.90
2023-06-21T21:35:16.908Z,18.60
2023-06-21T21:37:47.434Z,17.77
2023-06-21T21:40:18.153Z,17.83
2023-06-21T21:42:50.344Z,14.90
2023-06-21T21:45:21.015Z,15.70
2023-06-21T21:47:54.225Z,16.23
2023-06-21T21:50:24.965Z,15.50
2023-06-21T21:52:55.606Z,17.77
2023-06-21T21:55:27.657Z,14.93
2023-06-21T21:57:58.313Z,20.30
2023-06-21T22:00:29.907Z,14.33
2023-06-21T22:03:03.361Z,14.07
2023-06-21T22:05:34.237Z,13.43
2023-06-21T22:08:04.728Z,15.17
2023-06-21T22:10:39.128Z,12.53
2023-06-21T22:13:12.559Z,12.93
2023-06-21T22:15:50.631Z,13.50
2023-06-21T22:18:25.833Z,15.23
2023-06-21T22:20:58.327Z,13.70
2023-06-21T22:23:31.389Z,12.60
2023-06-21T22:26:02.869Z,14.97
2023-06-21T22:28:35.478Z,13.00
2023-06-21T22:31:06.444Z,16.47
2023-06-21T22:33:39.711Z,16.07
2023-06-21T22:36:13.483Z,16.30
2023-06-21T22:38:44.006Z,14.10
2023-06-21T22:41:14.510Z,12.93
2023-06-21T22:43:45.057Z,14.70
2023-06-21T22:46:15.644Z,17.73
2023-06-21T22:48:48.766Z,15.87
2023-06-21T22:51:19.405Z,14.23
2023-06-21T22:53:49.925Z,15.20
2023-06-21T22:56:20.616Z,21.57
2023-06-21T22:58:51.154Z,15.23
2023-06-21T23:01:22.962Z,13.67
2023-06-21T23:03:57.297Z,16.10
2023-06-21T23:06:28.516Z,13.80
2023-06-21T23:08:59.105Z,13.90
2023-06-21T23:11:29.768Z,16.00
2023-06-21T23:14:00.317Z,15.33
2023-06-21T23:16:36.603Z,13.00
2023-06-21T23:19:14.237Z,16.83
2023-06-21T23:21:46.155Z,16.40
2023-06-21T23:24:16.753Z,15.77
2023-06-21T23:26:49.843Z,17.73
2023-06-21T23:29:22.346Z,15.80
2023-06-21T23:31:52.982Z,14.93
2023-06-21T23:34:26.202Z,16.27
2023-06-21T23:37:00.130Z,17.93
2023-06-21T23:39:30.657Z,16.00
2023-06-21T23:42:01.463Z,15.13
2023-06-21T23:44:34.865Z,15.43
2023-06-21T23:47:05.377Z,19.57
2023-06-21T23:49:38.514Z,14.43
2023-06-21T23:52:09.702Z,13.73
2023-06-21T23:54:40.315Z,13.97
2023-06-21T23:57:10.944Z,14.37
2023-06-21T23:59:41.510Z,12.63
